Time;durP1;ratioP1;P1;durP2;ratioP2;P2;SDS_P1;SDS_P2;PMS_P1;PMS_P2;Temp;Humidity;BMP_temperature;BMP_pressure;BME280_temperature;BME280_humidity;BME280_pressure;Samples;Min_cycle;Max_cycle;Signal;HPM_P1;HPM_P2
2022/10/14 00:00:15;;;;;;;67.22;64.72;;;12.30;78.90;;;;;;5050324;28;20072;-75
2022/10/14 00:02:41;;;;;;;64.25;61.85;;;12.30;78.90;;;;;;5032227;28;20037;-75
2022/10/14 00:05:08;;;;;;;65.75;63.35;;;12.30;79.00;;;;;;5050315;28;20036;-75
2022/10/14 00:07:35;;;;;;;64.57;62.17;;;12.20;78.90;;;;;;5032590;28;20025;-75
2022/10/14 00:10:01;;;;;;;65.32;62.92;;;12.20;78.90;;;;;;5032128;28;20036;-75
2022/10/14 00:12:28;;;;;;;64.80;62.40;;;12.20;79.00;;;;;;5049793;28;20483;-75
2022/10/14 00:14:54;;;;;;;66.63;64.15;;;12.20;79.00;;;;;;5049865;28;20506;-75
2022/10/14 00:17:20;;;;;;;65.18;62.78;;;12.20;79.00;;;;;;5049946;28;20067;-75
2022/10/14 00:19:45;;;;;;;67.70;65.20;;;12.20;79.00;;;;;;5032062;28;20037;-75
2022/10/14 00:22:11;;;;;;;64.78;62.38;;;12.10;78.90;;;;;;5032051;28;20029;-75
2022/10/14 00:24:37;;;;;;;63.78;61.38;;;12.10;79.00;;;;;;5049839;28;20041;-75
2022/10/14 00:27:02;;;;;;;65.03;62.63;;;12.10;79.00;;;;;;5049781;28;20112;-75
2022/10/14 00:29:28;;;;;;;66.28;63.85;;;12.10;79.00;;;;;;5049790;28;20375;-75
2022/10/14 00:31:54;;;;;;;67.63;65.13;;;12.10;79.00;;;;;;5049428;28;20025;-75
2022/10/14 00:34:20;;;;;;;63.00;60.70;;;12.00;78.90;;;;;;5015392;28;20083;-75
2022/10/14 00:36:45;;;;;;;65.70;63.30;;;12.00;79.00;;;;;;5049652;28;20651;-75
2022/10/14 00:39:11;;;;;;;64.57;62.17;;;12.00;79.00;;;;;;5049516;28;20060;-75
2022/10/14 00:41:37;;;;;;;66.75;64.30;;;12.00;79.00;;;;;;5049457;28;20076;-75
2022/10/14 00:44:25;;;;;;;64.68;62.28;;;12.00;79.00;;;;;;5049390;28;20033;-75
2022/10/14 00:46:51;;;;;;;64.15;61.75;;;12.00;79.00;;;;;;5031558;28;20037;-75
2022/10/14 00:49:49;;;;;;;63.60;61.30;;;11.90;79.00;;;;;;5049805;28;20059;-75
2022/10/14 00:52:18;;;;;;;63.22;60.90;;;11.90;79.00;;;;;;5015311;28;20510;-75
2022/10/14 00:54:50;;;;;;;62.90;60.60;;;11.90;79.00;;;;;;5031314;28;20037;-75
2022/10/14 00:57:16;;;;;;;61.55;59.25;;;11.90;79.00;;;;;;5049154;28;20039;-75
2022/10/14 00:59:42;;;;;;;63.63;61.28;;;11.90;79.00;;;;;;5049194;28;20483;-75
2022/10/14 01:02:08;;;;;;;63.97;61.60;;;11.80;78.90;;;;;;5049071;28;20035;-75
2022/10/14 01:04:37;;;;;;;65.20;62.80;;;11.80;79.00;;;;;;5031242;28;20116;-75
2022/10/14 01:07:10;;;;;;;65.10;62.70;;;11.80;78.90;;;;;;5049032;28;20024;-75
2022/10/14 01:09:38;;;;;;;62.45;60.15;;;11.80;79.00;;;;;;5048994;28;20017;-75
2022/10/14 01:12:22;;;;;;;61.53;59.22;;;11.80;79.00;;;;;;5048847;28;20108;-75
2022/10/14 01:15:27;;;;;;;60.42;58.20;;;11.80;79.00;;;;;;5048958;28;20024;-75
2022/10/14 01:18:31;;;;;;;60.83;58.58;;;11.70;79.00;;;;;;5049111;28;20425;-73
2022/10/14 01:21:21;;;;;;;59.72;57.53;;;11.70;79.00;;;;;;5048841;28;20036;-73
2022/10/14 01:23:55;;;;;;;63.47;61.13;;;11.70;79.00;;;;;;5048980;28;20032;-73
2022/10/14 01:26:28;;;;;;;62.78;60.47;;;11.70;79.00;;;;;;5030908;28;20048;-73
2022/10/14 01:29:07;;;;;;;62.63;60.33;;;11.70;79.00;;;;;;5048783;28;20021;-73
2022/10/14 01:31:35;;;;;;;62.33;60.03;;;11.60;79.00;;;;;;5030781;28;20100;-73
2022/10/14 01:34:07;;;;;;;60.95;58.70;;;11.60;79.00;;;;;;5030805;28;20493;-73
2022/10/14 01:36:56;;;;;;;60.85;58.63;;;11.60;79.00;;;;;;5048763;28;20021;-73
2022/10/14 01:39:30;;;;;;;60.90;58.65;;;11.60;79.00;;;;;;5048415;28;20049;-73
2022/10/14 01:42:07;;;;;;;62.80;60.50;;;11.60;79.00;;;;;;5048437;28;20384;-73
2022/10/14 01:44:35;;;;;;;59.72;57.53;;;11.50;79.00;;;;;;5030614;28;20067;-73
2022/10/14 01:47:03;;;;;;;61.55;59.25;;;11.60;79.00;;;;;;5048817;28;20025;-73
2022/10/14 01:49:42;;;;;;;62.83;60.53;;;11.50;79.00;;;;;;5048336;28;20368;-73
2022/10/14 01:52:26;;;;;;;59.90;57.70;;;11.50;79.00;;;;;;5048169;28;20032;-73
2022/10/14 01:54:55;;;;;;;62.80;60.50;;;11.50;79.00;;;;;;5048260;28;20017;-73
2022/10/14 01:57:29;;;;;;;60.88;58.63;;;11.50;79.00;;;;;;5048127;28;20076;-75
2022/10/14 01:59:56;;;;;;;58.25;56.10;;;11.50;79.10;;;;;;5030346;28;20032;-75
2022/10/14 02:02:24;;;;;;;60.65;58.45;;;11.50;79.10;;;;;;5047920;28;20025;-75
2022/10/14 02:04:50;;;;;;;59.75;57.55;;;11.50;79.10;;;;;;5030038;28;20041;-75
2022/10/14 02:07:19;;;;;;;;;;;11.50;79.10;;;;;;5048410;28;20053;-75
2022/10/14 02:09:57;;;;;;;58.40;56.25;;;11.50;79.10;;;;;;5029506;28;20362;-75
2022/10/14 02:12:50;;;;;;;57.50;55.40;;;11.50;79.10;;;;;;5047789;28;20048;-75
2022/10/14 02:15:36;;;;;;;58.17;56.05;;;11.50;79.10;;;;;;5029730;28;20508;-75
2022/10/14 02:18:20;;;;;;;57.10;55.00;;;11.50;79.10;;;;;;5047889;28;20147;-75
2022/10/14 02:20:45;;;;;;;55.70;53.65;;;11.50;79.10;;;;;;5047624;28;20040;-75
2022/10/14 02:23:25;;;;;;;59.47;57.28;;;11.50;79.10;;;;;;5047690;28;20471;-75
2022/10/14 02:25:53;;;;;;;56.97;54.88;;;11.50;79.10;;;;;;5047636;28;20100;-75
2022/10/14 02:28:24;;;;;;;57.03;54.92;;;11.50;79.10;;;;;;5047528;28;20096;-75
2022/10/14 02:30:54;;;;;;;59.83;57.63;;;11.50;79.10;;;;;;5029687;28;20431;-75
2022/10/14 02:33:23;;;;;;;59.78;57.58;;;11.50;79.10;;;;;;5047530;28;20105;-75
2022/10/14 02:35:50;;;;;;;58.63;56.47;;;11.50;79.00;;;;;;5047380;28;20110;-75
2022/10/14 02:38:18;;;;;;;60.35;58.15;;;11.50;79.00;;;;;;5047418;28;20526;-75
2022/10/14 02:40:47;;;;;;;60.17;57.97;;;11.50;79.00;;;;;;5047260;28;20104;-75
2022/10/14 02:43:13;;;;;;;60.17;57.97;;;11.50;79.00;;;;;;5047135;28;20104;-75
2022/10/14 02:45:41;;;;;;;58.42;56.33;;;11.50;79.10;;;;;;5047357;28;20104;-75
2022/10/14 02:48:08;;;;;;;60.03;57.83;;;11.40;79.00;;;;;;5029289;28;20048;-75
2022/10/14 02:50:34;;;;;;;57.17;55.08;;;11.40;79.00;;;;;;5047144;28;20412;-75
2022/10/14 02:52:59;;;;;;;58.88;56.67;;;11.40;79.00;;;;;;5047157;28;20461;-75
2022/10/14 02:55:25;;;;;;;56.58;54.47;;;11.40;79.00;;;;;;5029459;28;20029;-75
2022/10/14 02:57:51;;;;;;;58.22;56.13;;;11.40;79.00;;;;;;5047298;28;20068;-75
2022/10/14 03:00:18;;;;;;;55.22;53.22;;;11.40;79.00;;;;;;5047230;28;20574;-75
2022/10/14 03:02:43;;;;;;;55.45;53.45;;;11.40;79.00;;;;;;5028886;28;20040;-75
2022/10/14 03:05:09;;;;;;;57.90;55.80;;;11.40;79.10;;;;;;5029306;28;20518;-75
2022/10/14 03:07:35;;;;;;;58.20;56.10;;;11.40;79.10;;;;;;5029394;28;20090;-75
2022/10/14 03:10:01;;;;;;;55.55;53.55;;;11.40;79.10;;;;;;5047089;28;20491;-75
2022/10/14 03:12:27;;;;;;;;;;;11.40;79.10;;;;;;5029680;28;20033;-75
2022/10/14 03:14:53;;;;;;;54.70;52.70;;;11.40;79.10;;;;;;5047031;28;20023;-75
2022/10/14 03:17:19;;;;;;;58.30;56.17;;;11.40;79.00;;;;;;5029353;28;20390;-75
2022/10/14 03:19:44;;;;;;;60.65;58.45;;;11.40;79.00;;;;;;5028983;28;20124;-75
2022/10/14 03:22:10;;;;;;;59.05;56.85;;;11.40;79.00;;;;;;5031216;28;20033;-75
2022/10/14 03:24:36;;;;;;;60.42;58.22;;;11.40;79.00;;;;;;5033295;28;20437;-75
2022/10/14 03:27:02;;;;;;;58.22;56.13;;;11.40;79.00;;;;;;5050965;28;20032;-75
2022/10/14 03:29:27;;;;;;;60.13;57.92;;;11.40;79.00;;;;;;5032985;28;20096;-75
2022/10/14 03:31:53;;;;;;;59.33;57.13;;;11.40;79.00;;;;;;5032893;28;20033;-75
2022/10/14 03:34:19;;;;;;;58.08;55.97;;;11.40;79.10;;;;;;5050765;28;20035;-75
2022/10/14 03:36:45;;;;;;;58.22;56.10;;;11.40;79.10;;;;;;5033034;28;20032;-75
2022/10/14 03:39:11;;;;;;;59.25;57.05;;;11.40;79.10;;;;;;5050717;28;20465;-75
2022/10/14 03:41:37;;;;;;;57.58;55.47;;;11.40;79.10;;;;;;5050584;28;20083;-75
2022/10/14 03:44:02;;;;;;;60.97;58.78;;;11.40;79.10;;;;;;5032570;28;20037;-75
2022/10/14 03:46:28;;;;;;;58.65;56.47;;;11.40;79.10;;;;;;5051058;28;20059;-75
2022/10/14 03:48:54;;;;;;;57.28;55.17;;;11.40;79.10;;;;;;5032835;28;20031;-75
2022/10/14 03:51:20;;;;;;;60.45;58.25;;;11.40;79.10;;;;;;5050180;28;20041;-75
2022/10/14 03:53:45;;;;;;;57.92;55.83;;;11.40;79.10;;;;;;5032226;28;20029;-75
2022/10/14 03:56:11;;;;;;;57.35;55.25;;;11.40;79.60;;;;;;5050309;28;20036;-75
2022/10/14 03:58:37;;;;;;;57.28;55.17;;;11.40;79.10;;;;;;5050086;28;20195;-75
2022/10/14 04:01:03;;;;;;;57.00;54.90;;;11.40;79.10;;;;;;5032294;28;20104;-75
2022/10/14 04:03:28;;;;;;;58.13;56.03;;;11.40;79.10;;;;;;5050233;28;20032;-75
2022/10/14 04:05:54;;;;;;;57.45;55.35;;;11.40;79.20;;;;;;5050321;28;20051;-75
2022/10/14 04:08:20;;;;;;;58.08;55.95;;;11.40;79.10;;;;;;5050432;28;20487;-75
2022/10/14 04:10:53;;;;;;;55.88;53.80;;;11.40;79.10;;;;;;5050034;28;20037;-75
2022/10/14 04:13:20;;;;;;;53.50;51.50;;;11.40;79.20;;;;;;5050166;28;20053;-75
2022/10/14 04:15:45;;;;;;;56.33;54.25;;;11.40;79.10;;;;;;5050532;28;20052;-75
2022/10/14 04:18:11;;;;;;;54.25;52.25;;;11.40;79.10;;;;;;5015644;28;20166;-75
2022/10/14 04:20:37;;;;;;;55.67;53.67;;;11.40;79.20;;;;;;5032161;28;20450;-76
2022/10/14 04:23:03;;;;;;;54.42;52.42;;;11.50;79.30;;;;;;5015576;28;20033;-75
2022/10/14 04:25:29;;;;;;;52.85;50.95;;;11.50;79.30;;;;;;5049971;28;20044;-75
2022/10/14 04:27:54;;;;;;;51.63;49.72;;;11.60;79.40;;;;;;5032036;28;20123;-76
2022/10/14 04:30:20;;;;;;;53.17;51.22;;;11.70;79.50;;;;;;5049708;28;20478;-75
2022/10/14 04:32:46;;;;;;;49.28;47.47;;;11.80;80.00;;;;;;5049173;28;20143;-75
2022/10/14 04:35:12;;;;;;;49.42;47.63;;;11.90;79.40;;;;;;5031947;28;20410;-75
2022/10/14 04:37:37;;;;;;;47.08;45.38;;;12.00;79.40;;;;;;5049625;28;20060;-75
2022/10/14 04:40:04;;;;;;;48.95;47.15;;;12.20;79.40;;;;;;5049497;28;20499;-75
2022/10/14 04:42:30;;;;;;;49.75;47.95;;;12.30;79.40;;;;;;5049460;28;20029;-75
2022/10/14 04:44:56;;;;;;;46.28;44.58;;;12.30;79.30;;;;;;5049500;28;20035;-75
2022/10/14 04:47:22;;;;;;;50.88;48.97;;;12.40;79.20;;;;;;5049455;28;20029;-75
2022/10/14 04:49:48;;;;;;;50.92;49.03;;;12.40;79.20;;;;;;5014993;28;20055;-75
2022/10/14 04:52:14;;;;;;;;;;;12.50;79.30;;;;;;5049874;28;20033;-75
2022/10/14 04:54:39;;;;;;;49.70;47.90;;;12.60;79.30;;;;;;5049395;28;19911;-76
2022/10/14 04:57:05;;;;;;;51.50;49.60;;;12.60;79.20;;;;;;5031518;28;20033;-75
2022/10/14 04:59:31;;;;;;;49.90;48.10;;;12.60;79.10;;;;;;5048998;28;20082;-75
2022/10/14 05:01:56;;;;;;;49.28;47.47;;;12.60;79.10;;;;;;5049191;28;20224;-75
2022/10/14 05:04:22;;;;;;;48.85;47.05;;;12.60;79.70;;;;;;5031205;28;20037;-75
2022/10/14 05:06:48;;;;;;;49.47;47.67;;;12.60;79.20;;;;;;5031359;28;20442;-75
2022/10/14 05:09:14;;;;;;;50.42;48.60;;;12.60;79.30;;;;;;5049097;28;20037;-75
2022/10/14 05:11:39;;;;;;;50.22;48.40;;;12.60;79.30;;;;;;5031140;28;20025;-75
2022/10/14 05:14:05;;;;;;;49.47;47.67;;;12.60;79.40;;;;;;5048966;28;20033;-75
2022/10/14 05:16:31;;;;;;;48.10;46.30;;;12.70;79.40;;;;;;5048960;28;20450;-75
2022/10/14 05:18:56;;;;;;;53.15;51.20;;;12.70;79.40;;;;;;5048795;28;20112;-75
2022/10/14 05:21:22;;;;;;;47.90;46.10;;;12.70;79.40;;;;;;5048778;28;20486;-75
2022/10/14 05:23:48;;;;;;;47.58;45.83;;;12.70;79.30;;;;;;5048742;28;20036;-75
2022/10/14 05:26:14;;;;;;;47.92;46.15;;;12.70;79.40;;;;;;5048717;28;20085;-75
2022/10/14 05:28:39;;;;;;;48.97;47.17;;;12.80;79.40;;;;;;5048656;28;20057;-75
2022/10/14 05:31:05;;;;;;;49.85;48.05;;;12.80;79.40;;;;;;5048353;28;20039;-75
2022/10/14 05:33:31;;;;;;;;;;;12.80;79.30;;;;;;5048712;28;20033;-75
2022/10/14 05:35:57;;;;;;;49.00;47.20;;;12.80;79.40;;;;;;5048526;28;19913;-75
2022/10/14 05:38:23;;;;;;;49.03;47.22;;;12.80;79.30;;;;;;5013994;28;20045;-75
2022/10/14 05:40:53;;;;;;;49.83;48.03;;;12.80;79.30;;;;;;5048461;28;20029;-75
2022/10/14 05:43:20;;;;;;;47.88;46.10;;;12.80;79.30;;;;;;5048217;28;20115;-75
2022/10/14 05:45:45;;;;;;;47.97;46.17;;;12.80;79.30;;;;;;5029458;28;20027;-75
2022/10/14 05:48:11;;;;;;;48.17;46.38;;;12.80;79.40;;;;;;5030191;28;20025;-75
2022/10/14 05:50:37;;;;;;;49.30;47.50;;;12.90;79.50;;;;;;5030435;28;20041;-75
2022/10/14 05:53:03;;;;;;;48.30;46.50;;;12.90;79.50;;;;;;5048082;28;20078;-75
2022/10/14 05:55:30;;;;;;;47.63;45.85;;;12.90;79.40;;;;;;5048484;28;20083;-75
2022/10/14 05:57:56;;;;;;;48.80;47.00;;;12.90;79.40;;;;;;5047793;28;20013;-75
2022/10/14 06:00:22;;;;;;;49.80;48.00;;;13.00;79.40;;;;;;5029790;28;20084;-75
2022/10/14 06:02:48;;;;;;;45.92;44.22;;;13.00;79.40;;;;;;5047717;28;20368;-75
2022/10/14 06:05:14;;;;;;;45.60;43.90;;;13.00;79.50;;;;;;5029979;28;20160;-75
2022/10/14 06:07:40;;;;;;;46.90;45.20;;;13.00;79.50;;;;;;5049120;28;20021;-75
2022/10/14 06:10:06;;;;;;;49.00;47.20;;;13.00;79.40;;;;;;5029820;28;20037;-76
2022/10/14 06:12:31;;;;;;;46.42;44.72;;;13.00;79.50;;;;;;5047547;28;20301;-75
2022/10/14 06:14:57;;;;;;;48.30;46.50;;;13.00;79.40;;;;;;5048110;28;20036;-75
2022/10/14 06:17:23;;;;;;;48.90;47.10;;;13.00;79.40;;;;;;5029934;28;20029;-75
2022/10/14 06:19:49;;;;;;;50.90;49.00;;;13.00;79.40;;;;;;5029864;28;20029;-74
2022/10/14 06:22:14;;;;;;;47.65;45.90;;;13.00;79.40;;;;;;5029273;28;20029;-76
2022/10/14 06:24:40;;;;;;;49.33;47.53;;;13.00;79.40;;;;;;5047363;28;20078;-75
2022/10/14 06:27:06;;;;;;;50.03;48.22;;;12.90;79.40;;;;;;5047270;28;20033;-76
2022/10/14 06:29:36;;;;;;;50.40;48.55;;;12.90;79.90;;;;;;5029075;28;20064;-75
2022/10/14 06:32:06;;;;;;;49.72;47.92;;;12.90;79.40;;;;;;5013659;28;20033;-73
2022/10/14 06:34:33;;;;;;;51.38;49.47;;;12.90;79.50;;;;;;5030273;28;20139;-73
2022/10/14 06:36:59;;;;;;;49.80;48.00;;;12.90;79.50;;;;;;5047261;28;20044;-73
2022/10/14 06:39:25;;;;;;;;;;;12.90;79.50;;;;;;5047291;28;20060;-73
2022/10/14 06:41:50;;;;;;;50.90;49.00;;;12.90;79.50;;;;;;5046827;28;19909;-73
2022/10/14 06:44:16;;;;;;;54.33;52.33;;;12.90;79.40;;;;;;5012872;28;20082;-74
2022/10/14 06:46:42;;;;;;;53.88;51.88;;;12.90;79.50;;;;;;5047073;28;20037;-73
2022/10/14 06:49:08;;;;;;;52.10;50.20;;;12.90;79.30;;;;;;5047202;28;20563;-74
2022/10/14 06:51:34;;;;;;;;;;;12.90;79.30;;;;;;5047164;28;20033;-73
2022/10/14 06:53:59;;;;;;;52.17;50.28;;;12.90;79.30;;;;;;5047121;28;19908;-73
2022/10/14 06:56:25;;;;;;;54.45;52.45;;;12.80;79.20;;;;;;5046232;28;20506;-73
2022/10/14 06:58:54;;;;;;;54.50;52.50;;;12.80;79.20;;;;;;5046535;28;20029;-75
2022/10/14 07:01:20;;;;;;;53.35;51.35;;;12.70;79.20;;;;;;5028822;28;20036;-74
2022/10/14 07:03:46;;;;;;;55.05;53.05;;;12.60;79.20;;;;;;5047298;28;20040;-75
2022/10/14 07:06:12;;;;;;;53.65;51.65;;;12.60;79.30;;;;;;5046885;28;20116;-74
2022/10/14 07:08:38;;;;;;;55.55;53.55;;;12.50;79.30;;;;;;5046945;28;20108;-74
2022/10/14 07:11:04;;;;;;;55.85;53.75;;;12.40;79.40;;;;;;5028714;28;20047;-74
2022/10/14 07:13:30;;;;;;;55.85;53.75;;;12.40;79.40;;;;;;5028611;28;20031;-74
2022/10/14 07:15:56;;;;;;;;;;;12.30;79.40;;;;;;5029116;28;20367;-74
2022/10/14 07:18:22;;;;;;;54.20;52.20;;;12.20;79.40;;;;;;5047055;28;19913;-74
2022/10/14 07:20:47;;;;;;;55.92;53.83;;;12.20;79.50;;;;;;5046445;28;20035;-73
2022/10/14 07:23:14;;;;;;;56.40;54.30;;;12.10;79.50;;;;;;5046637;28;20033;-74
2022/10/14 07:25:39;;;;;;;56.40;54.30;;;12.10;79.60;;;;;;5046656;28;20063;-74
2022/10/14 07:28:05;;;;;;;55.92;53.88;;;12.10;79.50;;;;;;5028887;28;20463;-74
2022/10/14 07:30:31;;;;;;;56.67;54.58;;;12.10;79.50;;;;;;5046854;28;20115;-74
2022/10/14 07:33:00;;;;;;;54.50;52.50;;;12.10;79.50;;;;;;5028317;28;20243;-74
2022/10/14 07:35:26;;;;;;;55.05;53.05;;;12.10;79.60;;;;;;5046423;28;20063;-73
2022/10/14 07:37:52;;;;;;;54.10;52.10;;;12.10;79.70;;;;;;5011913;28;20055;-74
2022/10/14 07:40:18;;;;;;;56.20;54.13;;;12.20;79.70;;;;;;5046217;28;20047;-75
2022/10/14 07:42:44;;;;;;;;;;;12.20;79.70;;;;;;5046638;28;20037;-73
2022/10/14 07:45:15;;;;;;;52.10;50.20;;;12.20;79.60;;;;;;5046407;28;20382;-74
2022/10/14 07:47:42;;;;;;;54.53;52.53;;;12.20;79.60;;;;;;5028315;28;20043;-75
2022/10/14 07:50:09;;;;;;;53.25;51.28;;;12.20;79.60;;;;;;5046075;28;20036;-74
2022/10/14 07:52:35;;;;;;;51.15;49.25;;;12.30;79.70;;;;;;5027461;28;20574;-75
2022/10/14 07:55:00;;;;;;;49.42;47.63;;;12.40;79.80;;;;;;5045904;28;20471;-75
2022/10/14 07:57:27;;;;;;;50.42;48.55;;;12.50;79.90;;;;;;5027760;28;20040;-75
2022/10/14 07:59:53;;;;;;;50.60;48.70;;;12.50;79.90;;;;;;5046228;28;20471;-75
2022/10/14 08:02:19;;;;;;;46.67;44.97;;;12.60;79.80;;;;;;5028577;28;20132;-73
2022/10/14 08:04:45;;;;;;;46.95;45.25;;;12.70;79.80;;;;;;5045682;28;20032;-74
2022/10/14 08:07:13;;;;;;;42.38;40.78;;;12.90;80.10;;;;;;5028292;28;20036;-74
2022/10/14 08:09:39;;;;;;;35.45;34.15;;;13.20;80.20;;;;;;5048428;28;20335;-74
2022/10/14 08:12:05;;;;;;;27.52;26.42;;;13.50;81.00;;;;;;5048781;28;20545;-74
2022/10/14 08:14:31;;;;;;;21.05;20.25;;;14.10;81.40;;;;;;5048648;28;20052;-74
2022/10/14 08:16:57;;;;;;;29.17;28.08;;;14.90;81.30;;;;;;5048720;28;20029;-75
2022/10/14 08:19:23;;;;;;;29.25;28.15;;;15.50;80.30;;;;;;5049505;28;20583;-75
2022/10/14 08:21:48;;;;;;;25.85;24.85;;;15.70;79.10;;;;;;5049305;28;20063;-74
2022/10/14 08:24:14;;;;;;;26.05;25.05;;;16.00;79.50;;;;;;5031716;28;20035;-74
2022/10/14 08:26:51;;;;;;;18.75;17.95;;;16.30;79.20;;;;;;5049061;28;20044;-74
2022/10/14 08:29:17;;;;;;;13.35;12.75;;;16.60;79.70;;;;;;5047539;28;20033;-74
2022/10/14 08:31:43;;;;;;;12.95;12.35;;;17.30;80.20;;;;;;5048601;28;20078;-75
2022/10/14 08:34:10;;;;;;;9.55;9.05;;;18.00;80.20;;;;;;5014777;28;20059;-75
2022/10/14 08:36:36;;;;;;;9.18;8.75;;;18.60;80.00;;;;;;5048365;28;20433;-75
2022/10/14 08:39:01;;;;;;;;;;;19.10;79.40;;;;;;5049108;28;20659;-75
2022/10/14 08:41:54;;;;;;;9.75;9.25;;;19.10;78.50;;;;;;5048548;28;19919;-75
2022/10/14 08:44:27;;;;;;;10.43;9.93;;;19.10;78.40;;;;;;5049013;28;20032;-74
2022/10/14 08:46:56;;;;;;;7.15;6.75;;;18.70;77.80;;;;;;5030498;28;20032;-74
2022/10/14 08:49:41;;;;;;;7.85;7.45;;;18.60;79.10;;;;;;5048841;28;20343;-76
2022/10/14 08:52:11;;;;;;;8.25;7.85;;;19.10;79.80;;;;;;5050382;28;20029;-75
2022/10/14 08:55:00;;;;;;;5.00;4.70;;;19.10;79.20;;;;;;5030795;28;20025;-75
2022/10/14 08:57:30;;;;;;;4.63;4.32;;;19.60;79.70;;;;;;5048475;28;20083;-75
2022/10/14 08:59:56;;;;;;;3.97;3.67;;;19.90;79.70;;;;;;5048819;28;20029;-75
2022/10/14 09:02:38;;;;;;;;;;;20.50;80.30;;;;;;5045673;28;20084;-75
2022/10/14 09:05:05;;;;;;;2.70;2.50;;;21.10;79.90;;;;;;5038672;28;19911;-75
2022/10/14 09:07:34;;;;;;;0.93;0.93;;;21.60;79.60;;;;;;5034572;28;20550;-76
2022/10/14 09:10:06;;;;;;;0.68;0.68;;;22.20;80.00;;;;;;5037544;28;20075;-73
2022/10/14 09:12:34;;;;;;;0.40;0.40;;;22.90;80.20;;;;;;5035276;28;20032;-76
2022/10/14 09:15:26;;;;;;;1.17;1.13;;;23.00;78.40;;;;;;5037044;28;20076;-75
2022/10/14 09:18:20;;;;;;;0.40;0.40;;;22.40;78.10;;;;;;5009750;28;20433;-75
2022/10/14 09:20:47;;;;;;;0.80;0.80;;;22.20;78.80;;;;;;5009047;28;20033;-74
2022/10/14 09:23:22;;;;;;;0.30;0.30;;;21.90;79.10;;;;;;5010664;28;20037;-75
2022/10/14 09:26:04;;;;;;;0.20;0.20;;;22.30;80.50;;;;;;5048403;28;20074;-75
2022/10/14 09:28:39;;;;;;;0.10;0.10;;;23.10;80.60;;;;;;5039994;28;20056;-76
2022/10/14 09:31:10;;;;;;;0.13;0.13;;;24.00;80.30;;;;;;5035631;28;20112;-75
2022/10/14 09:33:39;;;;;;;0.00;0.00;;;24.30;79.20;;;;;;5042063;28;20076;-76
2022/10/14 09:36:25;;;;;;;0.00;0.00;;;24.50;79.30;;;;;;5045550;28;20024;-73
2022/10/14 09:38:54;;;;;;;0.00;0.00;;;24.60;78.90;;;;;;5027088;28;20037;-73
2022/10/14 09:41:25;;;;;;;0.00;0.00;;;24.50;78.70;;;;;;5040133;28;20013;-76
2022/10/14 09:44:21;;;;;;;0.00;0.00;;;24.10;79.10;;;;;;5038663;28;20017;-76
2022/10/14 09:47:00;;;;;;;0.00;0.00;;;23.50;78.80;;;;;;5036233;28;20025;-75
2022/10/14 09:49:41;;;;;;;0.17;0.08;;;22.90;78.90;;;;;;5035025;28;20028;-76
2022/10/14 09:52:19;;;;;;;0.00;0.00;;;22.90;80.50;;;;;;5035789;28;20021;-75
2022/10/14 09:54:51;;;;;;;0.00;0.00;;;23.70;80.90;;;;;;5036212;28;20429;-76
2022/10/14 09:57:18;;;;;;;0.00;0.00;;;24.40;80.50;;;;;;5024392;28;20033;-75
2022/10/14 10:00:05;;;;;;;0.00;0.00;;;24.80;79.40;;;;;;5040850;28;20026;-77
2022/10/14 10:02:40;;;;;;;0.00;0.00;;;24.80;79.40;;;;;;5034604;28;20084;-78
2022/10/14 10:05:22;;;;;;;0.00;0.00;;;24.80;79.00;;;;;;5040483;28;20047;-81
2022/10/14 10:08:00;;;;;;;0.00;0.00;;;24.30;78.50;;;;;;5021666;28;20674;-73
2022/10/14 10:10:29;;;;;;;0.00;0.00;;;23.70;78.50;;;;;;5037103;28;20765;-71
2022/10/14 10:12:56;;;;;;;0.00;0.00;;;23.20;78.70;;;;;;5035651;28;20025;-74
2022/10/14 10:15:21;;;;;;;0.00;0.00;;;22.60;78.70;;;;;;5039195;28;20111;-76
2022/10/14 10:17:47;;;;;;;;;;;22.10;79.20;;;;;;5036427;28;20531;-75
2022/10/14 10:20:31;;;;;;;0.00;0.00;;;22.00;79.80;;;;;;5019800;28;20260;-77
2022/10/14 10:23:24;;;;;;;0.00;0.00;;;21.70;80.20;;;;;;5037489;28;20027;-72
2022/10/14 10:25:50;;;;;;;0.20;0.05;;;21.80;80.30;;;;;;5026537;28;20037;-73
2022/10/14 10:28:19;;;;;;;0.00;0.00;;;21.80;81.00;;;;;;5037814;28;20109;-78
2022/10/14 10:30:56;;;;;;;0.00;0.00;;;22.30;81.40;;;;;;5037786;28;20103;-74
2022/10/14 10:33:55;;;;;;;0.00;0.00;;;23.20;82.50;;;;;;5038288;28;20383;-74
2022/10/14 10:36:35;;;;;;;0.00;0.00;;;24.50;82.10;;;;;;5032151;28;20128;-76
2022/10/14 10:39:16;;;;;;;0.00;0.00;;;25.00;80.20;;;;;;5031946;28;20079;-75
2022/10/14 10:42:12;;;;;;;0.00;0.00;;;24.60;79.70;;;;;;5037558;28;20030;-76
2022/10/14 10:44:52;;;;;;;0.00;0.00;;;24.00;79.00;;;;;;5041227;28;20017;-77
2022/10/14 10:47:36;;;;;;;0.00;0.00;;;23.20;79.10;;;;;;5023920;28;20036;-77
2022/10/14 10:50:30;;;;;;;0.00;0.00;;;22.60;79.00;;;;;;5037298;28;20025;-76
2022/10/14 10:53:18;;;;;;;0.00;0.00;;;22.00;79.30;;;;;;5040871;28;20550;-74
2022/10/14 10:55:44;;;;;;;0.00;0.00;;;21.40;79.50;;;;;;5018476;28;20017;-74
2022/10/14 10:58:21;;;;;;;;;;;21.00;79.60;;;;;;5041525;28;20324;-75
2022/10/14 11:01:11;;;;;;;0.00;0.00;;;20.70;79.80;;;;;;5022663;28;19912;-73
2022/10/14 11:04:13;;;;;;;0.00;0.00;;;20.40;80.20;;;;;;5033917;28;20025;-76
2022/10/14 11:12:58;;;;;;;0.17;0.13;;;21.30;81.70;;;;;;5039750;28;20048;-74
2022/10/14 11:15:33;;;;;;;0.00;0.00;;;21.90;80.80;;;;;;5047419;28;20033;-75
2022/10/14 11:18:04;;;;;;;0.00;0.00;;;21.70;79.50;;;;;;5047465;28;20028;-74
2022/10/14 11:21:07;;;;;;;0.00;0.00;;;21.30;79.50;;;;;;5029578;28;20105;-73
2022/10/14 11:23:58;;;;;;;0.20;0.20;;;21.10;79.50;;;;;;5047715;28;20041;-75
2022/10/14 11:26:27;;;;;;;0.00;0.00;;;21.00;79.50;;;;;;5047302;28;20486;-74
2022/10/14 11:29:26;;;;;;;0.00;0.00;;;20.70;79.40;;;;;;5047301;28;20025;-71
2022/10/14 11:32:04;;;;;;;0.00;0.00;;;20.50;79.40;;;;;;5047753;28;20482;-73
2022/10/14 11:34:36;;;;;;;0.00;0.00;;;20.30;79.00;;;;;;5047339;28;20036;-73
2022/10/14 11:37:30;;;;;;;0.00;0.00;;;19.80;78.60;;;;;;5046840;28;20104;-73
2022/10/14 11:40:16;;;;;;;0.00;0.00;;;19.50;78.90;;;;;;5047120;28;20050;-73
2022/10/14 11:43:00;;;;;;;0.00;0.00;;;19.20;78.80;;;;;;5049253;28;20021;-73
2022/10/14 11:45:53;;;;;;;0.00;0.00;;;18.80;79.00;;;;;;5051072;28;20041;-75
2022/10/14 11:48:32;;;;;;;0.10;0.10;;;18.80;80.20;;;;;;5051026;28;20033;-78
2022/10/14 11:51:21;;;;;;;0.00;0.00;;;19.50;81.70;;;;;;5051423;28;20021;-74
2022/10/14 11:54:13;;;;;;;0.00;0.00;;;20.80;82.60;;;;;;5050981;28;20032;-74
2022/10/14 11:56:49;;;;;;;0.00;0.00;;;21.60;80.50;;;;;;5050827;28;20063;-75
2022/10/14 11:59:24;;;;;;;0.00;0.00;;;21.50;79.10;;;;;;5050891;28;20048;-79
2022/10/14 12:01:55;;;;;;;0.00;0.00;;;21.20;78.80;;;;;;5050365;28;20067;-74
2022/10/14 12:04:33;;;;;;;0.00;0.00;;;20.80;78.90;;;;;;5050452;28;20531;-78
2022/10/14 12:07:12;;;;;;;0.00;0.00;;;20.50;79.00;;;;;;5050692;28;20140;-77
2022/10/14 12:09:43;;;;;;;0.00;0.00;;;20.10;78.80;;;;;;5050192;28;20048;-66
2022/10/14 12:12:13;;;;;;;0.00;0.00;;;19.80;78.70;;;;;;5039280;28;20033;-76
2022/10/14 12:14:44;;;;;;;0.00;0.00;;;19.40;78.60;;;;;;5023035;28;20021;-78
2022/10/14 12:17:20;;;;;;;0.00;0.00;;;19.10;78.90;;;;;;5037270;28;20029;-77
2022/10/14 12:19:46;;;;;;;0.00;0.00;;;19.00;79.30;;;;;;5021282;28;20031;-75
2022/10/14 12:22:20;;;;;;;0.00;0.00;;;19.10;80.30;;;;;;5021281;28;20084;-72
2022/10/14 12:24:53;;;;;;;0.00;0.00;;;19.20;79.80;;;;;;5038270;28;20020;-75
2022/10/14 12:27:22;;;;;;;0.00;0.00;;;19.30;79.50;;;;;;5035612;28;20045;-74
2022/10/14 12:29:50;;;;;;;0.10;0.00;;;19.30;79.20;;;;;;5037667;28;20065;-73
2022/10/14 12:32:20;;;;;;;0.00;0.00;;;19.40;79.40;;;;;;5040225;28;20036;-75
2022/10/14 12:34:49;;;;;;;0.00;0.00;;;19.40;79.50;;;;;;5050672;28;20029;-74
2022/10/14 12:37:23;;;;;;;0.00;0.00;;;19.80;80.40;;;;;;5049987;28;20040;-76
2022/10/14 12:40:12;;;;;;;0.00;0.00;;;20.10;80.00;;;;;;5049767;28;20045;-73
2022/10/14 12:42:47;;;;;;;0.00;0.00;;;20.50;80.10;;;;;;5049937;28;20076;-76
2022/10/14 12:45:20;;;;;;;0.00;0.00;;;20.70;79.50;;;;;;5050280;28;20032;-75
2022/10/14 12:47:59;;;;;;;0.00;0.00;;;21.00;80.00;;;;;;5032064;28;20029;-78
2022/10/14 12:50:30;;;;;;;0.00;0.00;;;21.30;80.20;;;;;;5033903;28;20025;-71
2022/10/14 12:53:01;;;;;;;0.00;0.00;;;21.60;79.90;;;;;;5049473;28;20111;-77
2022/10/14 12:55:45;;;;;;;0.00;0.00;;;21.70;79.20;;;;;;5050275;28;20092;-73
2022/10/14 12:58:24;;;;;;;0.00;0.00;;;21.90;80.10;;;;;;5052202;28;20048;-77
2022/10/14 13:01:22;;;;;;;0.00;0.00;;;22.30;80.10;;;;;;5053806;28;20049;-77
2022/10/14 13:03:57;;;;;;;0.00;0.00;;;22.40;79.80;;;;;;5053278;28;20037;-77